Time;durP1;ratioP1;P1;durP2;ratioP2;P2;SDS_P1;SDS_P2;PMS_P1;PMS_P2;Temp;Humidity;BMP_temperature;BMP_pressure;BME280_temperature;BME280_humidity;BME280_pressure;Samples;Min_cycle;Max_cycle;Signal;HPM_P1;HPM_P2
2023/09/23 00:00:18;;;;;;;2.80;2.40;;;15.20;99.90;14.70;99621;;;;572385;247;24094;-79
2023/09/23 00:02:46;;;;;;;3.00;2.50;;;15.20;99.90;14.70;99617;;;;572249;247;24098;-79
2023/09/23 00:05:19;;;;;;;2.37;2.27;;;15.20;99.90;14.70;99633;;;;571901;247;24090;-79
2023/09/23 00:07:46;;;;;;;3.93;2.43;;;15.20;99.90;14.70;99640;;;;572025;247;24092;-79
2023/09/23 00:10:14;;;;;;;4.20;2.20;;;15.20;99.90;14.70;99630;;;;571578;247;24103;-79
2023/09/23 00:12:41;;;;;;;3.30;2.07;;;15.20;99.90;14.60;99621;;;;569571;247;24094;-79
2023/09/23 00:15:06;;;;;;;3.25;2.95;;;15.20;99.90;14.70;99628;;;;566493;247;35329;-79
2023/09/23 00:17:37;;;;;;;3.13;2.60;;;15.20;99.90;14.60;99621;;;;571949;247;24104;-80
2023/09/23 00:20:06;;;;;;;2.97;2.73;;;15.20;99.90;14.70;99618;;;;572509;247;24110;-79
2023/09/23 00:22:30;;;;;;;3.50;2.40;;;15.20;99.90;14.60;99614;;;;571867;247;24171;-78
2023/09/23 00:24:59;;;;;;;1.93;1.83;;;15.20;99.90;14.70;99623;;;;572364;247;24075;-77
2023/09/23 00:27:30;;;;;;;2.60;2.40;;;15.20;99.90;14.70;99633;;;;572917;247;24140;-79
2023/09/23 00:29:53;;;;;;;2.57;2.37;;;15.20;99.90;14.70;99638;;;;573077;247;24118;-79
2023/09/23 00:32:22;;;;;;;2.33;2.07;;;15.20;99.90;14.70;99632;;;;572950;247;24113;-82
2023/09/23 00:34:49;;;;;;;2.17;1.97;;;15.20;99.90;14.70;99639;;;;572613;247;24077;-80
2023/09/23 00:37:18;;;;;;;2.67;2.07;;;15.20;99.90;14.60;99635;;;;572409;247;24113;-83
2023/09/23 00:39:46;;;;;;;2.10;2.00;;;15.20;99.90;14.70;99640;;;;571805;247;24091;-79
2023/09/23 00:42:15;;;;;;;4.87;2.80;;;15.20;99.90;14.70;99637;;;;571823;247;24100;-79
2023/09/23 00:44:42;;;;;;;3.00;2.70;;;15.20;99.90;14.70;99642;;;;571792;247;24090;-80
2023/09/23 00:47:12;;;;;;;3.10;2.70;;;15.20;99.90;14.60;99646;;;;572138;247;24087;-78
2023/09/23 00:49:44;;;;;;;2.67;2.47;;;15.20;99.90;14.60;99647;;;;571678;247;24091;-80
2023/09/23 00:52:11;;;;;;;3.80;2.73;;;15.20;99.90;14.60;99650;;;;572499;246;24086;-78
2023/09/23 00:54:40;;;;;;;2.83;2.57;;;15.20;99.90;14.60;99651;;;;573135;246;24145;-79
2023/09/23 00:57:08;;;;;;;2.57;2.37;;;15.20;99.90;14.60;99651;;;;573124;246;24067;-78
2023/09/23 00:59:39;;;;;;;3.20;2.67;;;15.20;99.90;14.60;99651;;;;573412;246;24063;-80
2023/09/23 01:02:09;;;;;;;2.60;2.40;;;15.20;99.90;14.60;99653;;;;572711;246;24114;-79
2023/09/23 01:04:33;;;;;;;5.30;3.27;;;15.10;99.90;14.60;99653;;;;572397;246;24107;-80
2023/09/23 01:07:02;;;;;;;4.80;2.80;;;15.20;99.90;14.60;99651;;;;572869;246;24098;-81
2023/09/23 01:09:33;;;;;;;3.40;3.10;;;15.10;99.90;14.60;99652;;;;572060;247;24252;-82
2023/09/23 01:11:57;;;;;;;3.40;3.10;;;15.20;99.90;14.60;99653;;;;571955;247;24191;-81
2023/09/23 01:14:25;;;;;;;2.80;2.70;;;15.10;99.90;14.60;99656;;;;571774;247;24128;-81
2023/09/23 01:16:57;;;;;;;3.70;3.40;;;15.10;99.90;14.60;99652;;;;571782;247;24134;-83
2023/09/23 01:19:25;;;;;;;4.13;2.80;;;15.10;99.90;14.60;99650;;;;571697;247;24169;-83
2023/09/23 01:21:49;;;;;;;3.20;2.90;;;15.10;99.90;14.60;99649;;;;571658;247;24096;-79
2023/09/23 01:24:17;;;;;;;4.37;2.90;;;15.10;99.90;14.60;99655;;;;571926;247;24157;-81
2023/09/23 01:26:45;;;;;;;2.60;2.40;;;15.10;99.90;14.60;99655;;;;571616;247;24121;-82
2023/09/23 01:29:13;;;;;;;3.83;2.30;;;15.10;99.90;14.60;99659;;;;571480;247;24101;-81
2023/09/23 01:31:41;;;;;;;2.60;2.40;;;15.10;99.90;14.60;99660;;;;572022;247;24170;-80
2023/09/23 01:34:09;;;;;;;3.17;1.77;;;15.10;99.90;14.50;99661;;;;572020;247;24095;-81
2023/09/23 01:36:37;;;;;;;3.60;2.27;;;15.10;99.90;14.50;99660;;;;572046;247;24080;-82
2023/09/23 01:39:07;;;;;;;2.37;2.23;;;15.00;99.90;14.50;99665;;;;572019;247;24211;-83
2023/09/23 01:41:33;;;;;;;2.37;2.13;;;15.00;99.90;14.50;99651;;;;571662;247;24172;-81
2023/09/23 01:44:01;;;;;;;3.27;2.10;;;15.00;99.90;14.50;99647;;;;571716;247;24097;-82
2023/09/23 01:46:30;;;;;;;2.10;1.90;;;15.00;99.90;14.50;99647;;;;571593;247;24103;-83
2023/09/23 01:48:58;;;;;;;6.07;1.90;;;15.00;99.90;14.50;99640;;;;571769;247;24085;-82
2023/09/23 01:51:25;;;;;;;2.03;1.93;;;15.00;99.90;14.40;99638;;;;571719;247;24079;-82
2023/09/23 01:53:53;;;;;;;4.33;2.10;;;15.00;99.90;14.50;99643;;;;571756;247;24095;-83
2023/09/23 01:56:20;;;;;;;2.20;2.00;;;15.00;99.90;14.40;99637;;;;571599;247;24067;-80
2023/09/23 01:58:48;;;;;;;2.37;2.17;;;14.90;99.90;14.40;99632;;;;572215;247;24083;-82
2023/09/23 02:01:16;;;;;;;4.27;2.20;;;15.00;99.90;14.40;99640;;;;571696;247;24095;-82
2023/09/23 02:03:45;;;;;;;2.67;1.80;;;15.00;99.90;14.40;99635;;;;572861;246;24101;-82
2023/09/23 02:06:15;;;;;;;3.43;1.73;;;15.00;99.90;14.40;99635;;;;573327;246;24089;-81
2023/09/23 02:08:40;;;;;;;1.83;1.73;;;14.90;99.90;14.40;99621;;;;572717;246;24091;-82
2023/09/23 02:11:08;;;;;;;1.70;1.60;;;14.90;99.90;14.30;99629;;;;572545;246;24095;-80
2023/09/23 02:13:40;;;;;;;2.03;1.90;;;14.90;99.90;14.30;99620;;;;572188;246;24100;-80
2023/09/23 02:16:04;;;;;;;2.37;2.17;;;14.90;99.90;14.30;99625;;;;572087;246;24170;-80
2023/09/23 02:18:37;;;;;;;2.20;2.10;;;14.90;99.90;14.30;99624;;;;572227;246;24100;-81
2023/09/23 02:21:01;;;;;;;2.67;2.47;;;14.80;99.90;14.30;99623;;;;572016;246;24106;-81
2023/09/23 02:23:29;;;;;;;2.40;2.20;;;14.90;99.90;14.30;99628;;;;571967;247;24094;-79
2023/09/23 02:25:57;;;;;;;3.47;2.70;;;14.90;99.90;14.30;99629;;;;571871;247;24115;-79
2023/09/23 02:28:25;;;;;;;2.57;2.30;;;14.80;99.90;14.30;99634;;;;572197;247;24082;-82
2023/09/23 02:30:53;;;;;;;2.63;2.30;;;14.80;99.90;14.30;99637;;;;571829;247;24090;-82
2023/09/23 02:33:21;;;;;;;2.70;2.50;;;14.80;99.90;14.30;99636;;;;572207;247;24115;-80
2023/09/23 02:35:49;;;;;;;3.97;3.43;;;14.80;99.90;14.30;99642;;;;572315;247;24135;-80
2023/09/23 02:38:18;;;;;;;5.43;2.93;;;14.80;99.90;14.30;99637;;;;571673;247;24135;-82
2023/09/23 02:40:48;;;;;;;4.13;3.23;;;14.80;99.90;14.30;99625;;;;572109;247;24231;-82
2023/09/23 02:43:14;;;;;;;3.63;3.20;;;14.80;99.90;14.30;99630;;;;571707;247;24110;-82
2023/09/23 02:45:42;;;;;;;3.20;2.90;;;14.80;99.90;14.30;99644;;;;571578;247;24089;-80
2023/09/23 02:48:13;;;;;;;3.33;3.13;;;14.80;99.90;14.30;99646;;;;571778;247;24082;-80
2023/09/23 02:50:37;;;;;;;2.80;2.60;;;14.80;99.90;14.30;99640;;;;571520;247;24092;-80
2023/09/23 02:53:05;;;;;;;4.45;4.10;;;14.80;99.90;14.30;99639;;;;566748;247;35229;-78
2023/09/23 02:55:33;;;;;;;3.47;3.17;;;14.80;99.90;14.30;99636;;;;571619;247;24093;-79
2023/09/23 02:58:02;;;;;;;3.93;3.53;;;14.90;99.90;14.30;99623;;;;572070;247;24170;-80
2023/09/23 03:00:34;;;;;;;3.67;3.37;;;14.80;99.90;14.30;99620;;;;571688;247;24087;-81
2023/09/23 03:02:58;;;;;;;3.57;3.23;;;14.90;99.90;14.30;99615;;;;571383;247;24080;-79
2023/09/23 03:05:30;;;;;;;4.23;2.90;;;14.90;99.90;14.30;99612;;;;571694;247;24088;-79
2023/09/23 03:07:59;;;;;;;4.90;3.67;;;14.80;99.90;14.30;99615;;;;571688;247;24086;-79
2023/09/23 03:10:40;;;;;;;3.20;2.90;;;14.80;99.90;14.30;99597;;;;572042;247;25540;-79
2023/09/23 03:13:11;;;;;;;4.23;3.53;;;14.80;99.90;14.30;99586;;;;572221;247;24156;-78
2023/09/23 03:16:28;;;;;;;7.37;3.47;;;14.80;99.90;14.30;99572;;;;572940;246;24140;-80
2023/09/23 03:18:10;;;;;;;5.80;3.83;;;14.80;99.90;14.20;99582;;;;566306;246;24081;-80
2023/09/23 03:20:38;;;;;;;4.00;3.60;;;14.80;99.90;14.20;99599;;;;572994;246;24095;-79
2023/09/23 03:23:09;;;;;;;5.53;3.30;;;14.80;99.90;14.20;99604;;;;572800;246;24102;-78
2023/09/23 03:25:33;;;;;;;6.60;4.13;;;14.70;99.90;14.20;99604;;;;572444;246;24079;-79
2023/09/23 03:28:02;;;;;;;4.30;3.63;;;14.70;99.90;14.20;99609;;;;572554;246;24076;-78
2023/09/23 03:30:29;;;;;;;4.13;3.73;;;14.70;99.90;14.10;99611;;;;572620;246;24153;-80
2023/09/23 03:32:57;;;;;;;4.23;3.83;;;14.70;99.90;14.20;99612;;;;572738;247;24091;-78
2023/09/23 03:35:28;;;;;;;6.35;5.75;;;14.70;99.90;14.10;99607;;;;567530;247;46286;-79
2023/09/23 03:37:54;;;;;;;5.13;4.63;;;14.70;99.90;14.20;99613;;;;572444;247;24124;-79
2023/09/23 03:40:25;;;;;;;5.80;3.50;;;14.70;99.90;14.10;99629;;;;572187;247;24083;-80
2023/09/23 03:42:51;;;;;;;3.73;3.10;;;14.70;99.90;14.10;99632;;;;572320;247;24084;-80
2023/09/23 03:45:19;;;;;;;4.97;3.43;;;14.70;99.90;14.10;99626;;;;572648;247;24086;-78
2023/09/23 03:47:49;;;;;;;6.07;3.77;;;14.70;99.90;14.10;99628;;;;572454;247;24066;-79
2023/09/23 03:50:17;;;;;;;3.83;3.43;;;14.70;99.90;14.10;99626;;;;572270;247;24114;-82
2023/09/23 03:52:45;;;;;;;4.13;3.60;;;14.70;99.90;14.10;99623;;;;572010;247;24079;-79
2023/09/23 03:55:13;;;;;;;6.77;3.43;;;14.80;99.90;14.10;99617;;;;571974;247;24082;-80
2023/09/23 03:57:42;;;;;;;6.40;2.87;;;14.70;99.90;14.10;99624;;;;571971;247;24088;-82
2023/09/23 04:00:16;;;;;;;4.33;3.20;;;14.70;99.90;14.10;99637;;;;571899;247;24082;-82
2023/09/23 04:02:47;;;;;;;3.67;3.27;;;14.60;99.90;14.10;99646;;;;571908;247;25150;-82
2023/09/23 04:05:11;;;;;;;3.90;3.47;;;14.60;99.90;14.10;99640;;;;571200;247;24118;-81
2023/09/23 04:07:40;;;;;;;3.00;2.80;;;14.60;99.90;14.00;99653;;;;571632;247;24082;-79
2023/09/23 04:10:07;;;;;;;2.80;2.53;;;14.60;99.90;14.00;99647;;;;571615;247;24085;-78
2023/09/23 04:12:36;;;;;;;2.50;2.30;;;14.50;99.90;13.90;99646;;;;571317;247;24119;-79
2023/09/23 04:15:07;;;;;;;2.27;2.07;;;14.50;99.90;13.90;99648;;;;571910;247;24093;-81
2023/09/23 04:17:31;;;;;;;2.00;1.90;;;14.40;99.90;13.80;99644;;;;571677;247;24098;-80
2023/09/23 04:20:09;;;;;;;2.73;2.00;;;14.30;99.90;13.80;99645;;;;571976;247;24225;-80
2023/09/23 04:22:27;;;;;;;1.80;1.70;;;14.30;99.90;13.80;99654;;;;571933;247;24116;-81
2023/09/23 04:24:55;;;;;;;1.90;1.80;;;14.30;99.90;13.80;99659;;;;572011;247;24089;-81
2023/09/23 04:27:23;;;;;;;2.20;2.00;;;14.30;99.90;13.80;99661;;;;572612;246;24073;-81
2023/09/23 04:29:54;;;;;;;1.73;1.63;;;14.30;99.90;13.80;99657;;;;572746;246;24076;-82
2023/09/23 04:32:18;;;;;;;2.77;2.10;;;14.30;99.90;13.80;99664;;;;572478;246;24126;-81
2023/09/23 04:34:46;;;;;;;3.23;2.03;;;14.30;99.90;13.80;99661;;;;572391;246;24089;-81
2023/09/23 04:37:14;;;;;;;1.90;1.80;;;14.30;99.90;13.80;99655;;;;572555;246;24089;-81
2023/09/23 04:39:42;;;;;;;1.97;1.87;;;14.30;99.90;13.80;99667;;;;572477;246;24083;-83
2023/09/23 04:42:11;;;;;;;2.23;2.03;;;14.30;99.90;13.80;99674;;;;572520;246;24102;-82
2023/09/23 04:44:38;;;;;;;2.20;2.00;;;14.30;99.90;13.80;99681;;;;572437;247;24071;-82
2023/09/23 04:47:06;;;;;;;2.80;2.60;;;14.30;99.90;13.80;99681;;;;571777;247;24094;-82
2023/09/23 04:49:34;;;;;;;2.20;2.00;;;14.40;99.90;13.80;99694;;;;571985;247;24082;-81
2023/09/23 04:52:03;;;;;;;2.97;2.50;;;14.40;99.90;13.80;99712;;;;571704;247;24118;-82
2023/09/23 04:54:30;;;;;;;2.87;2.67;;;14.40;99.90;13.90;99717;;;;572002;247;24114;-83
2023/09/23 04:56:57;;;;;;;3.53;2.97;;;14.40;99.90;13.90;99725;;;;571733;247;24082;-82
2023/09/23 04:59:25;;;;;;;3.00;2.70;;;14.50;99.90;14.00;99731;;;;571868;247;24106;-81
2023/09/23 05:01:54;;;;;;;2.80;2.60;;;14.50;99.90;14.00;99728;;;;571955;247;24144;-79
2023/09/23 05:04:21;;;;;;;4.17;2.73;;;14.60;99.90;14.10;99725;;;;571750;247;24110;-79
2023/09/23 05:06:50;;;;;;;4.63;2.47;;;14.60;99.90;14.10;99720;;;;572206;247;24112;-79
2023/09/23 05:09:17;;;;;;;2.50;2.30;;;14.70;99.90;14.20;99720;;;;571783;247;24091;-81
2023/09/23 05:11:45;;;;;;;3.33;3.00;;;14.80;99.90;14.30;99712;;;;571895;247;24115;-77
2023/09/23 05:14:15;;;;;;;4.33;2.60;;;14.80;99.90;14.30;99727;;;;571799;247;24080;-81
2023/09/23 05:16:41;;;;;;;2.30;2.10;;;14.90;99.90;14.40;99723;;;;572125;247;24111;-81
2023/09/23 05:19:09;;;;;;;2.90;2.70;;;14.90;99.90;14.50;99732;;;;572190;247;24078;-80
2023/09/23 05:21:38;;;;;;;2.87;2.33;;;15.10;99.90;14.50;99715;;;;572097;247;24218;-80
2023/09/23 05:24:09;;;;;;;3.00;2.80;;;15.10;99.90;14.60;99709;;;;571826;247;24098;-80
2023/09/23 05:26:33;;;;;;;2.97;2.37;;;15.10;99.90;14.70;99713;;;;571829;247;24169;-79
2023/09/23 05:29:02;;;;;;;3.30;3.00;;;15.20;99.90;14.80;99716;;;;572034;247;24137;-81
2023/09/23 05:31:30;;;;;;;3.37;2.67;;;15.40;99.90;14.80;99729;;;;572127;247;24125;-78
2023/09/23 05:33:58;;;;;;;2.73;2.50;;;15.40;99.90;15.00;99730;;;;572080;247;24112;-80
2023/09/23 05:36:26;;;;;;;5.80;2.73;;;15.50;99.90;15.10;99735;;;;572042;247;24101;-81
2023/09/23 05:38:54;;;;;;;4.47;3.33;;;15.60;99.90;15.40;99745;;;;572687;246;24094;-79
2023/09/23 05:41:23;;;;;;;4.25;3.90;;;15.90;99.90;15.70;99754;;;;567680;246;35300;-78
2023/09/23 05:43:51;;;;;;;5.07;3.73;;;16.10;99.90;16.00;99754;;;;572530;246;24070;-78
2023/09/23 05:46:18;;;;;;;8.03;3.57;;;16.50;99.90;16.30;99769;;;;572496;246;24118;-79
2023/09/23 05:48:48;;;;;;;5.50;3.83;;;16.70;99.90;16.60;99766;;;;551836;256;24173;-79
2023/09/23 05:51:16;;;;;;;8.00;3.17;;;17.10;99.90;17.60;99777;;;;568053;251;24112;-78
2023/09/23 05:53:44;;;;;;;5.77;3.60;;;18.00;99.90;18.40;99790;;;;561375;252;24105;-79
2023/09/23 05:56:12;;;;;;;3.40;2.93;;;18.80;99.90;18.60;99799;;;;550529;256;24154;-79
2023/09/23 05:58:40;;;;;;;2.50;2.37;;;19.10;99.90;18.70;99819;;;;549414;257;24162;-79
2023/09/23 06:01:08;;;;;;;2.47;2.13;;;19.20;99.90;18.50;99826;;;;555286;256;23184;-78
2023/09/23 06:03:36;;;;;;;3.13;2.37;;;19.00;99.90;18.30;99826;;;;561697;252;24149;-78
2023/09/23 06:06:04;;;;;;;7.00;2.57;;;18.90;99.90;18.60;99826;;;;559970;253;23130;-78
2023/09/23 06:08:31;;;;;;;6.47;3.27;;;19.00;99.90;19.20;99829;;;;562319;251;23256;-78
2023/09/23 06:11:05;;;;;;;2.47;2.27;;;19.60;99.90;19.60;99823;;;;561597;251;23151;-79
2023/09/23 06:13:34;;;;;;;4.90;2.80;;;20.00;99.90;19.60;99819;;;;561256;251;24131;-78
2023/09/23 06:16:05;;;;;;;16.20;3.10;;;20.00;99.90;19.40;99821;;;;560568;252;23199;-80
2023/09/23 06:18:33;;;;;;;8.70;3.43;;;19.90;99.90;19.20;99822;;;;560737;252;24131;-78
2023/09/23 06:21:01;;;;;;;16.87;3.37;;;19.80;99.90;19.10;99820;;;;561581;252;24145;-80
2023/09/23 06:23:29;;;;;;;8.73;3.13;;;19.80;99.90;19.00;99806;;;;561471;252;24164;-78
2023/09/23 06:26:01;;;;;;;2.53;2.33;;;19.70;99.90;19.00;99797;;;;560945;252;23166;-79
2023/09/23 06:28:31;;;;;;;2.77;2.27;;;19.70;99.90;19.10;99804;;;;560815;252;23134;-78
2023/09/23 06:30:55;;;;;;;4.13;2.20;;;19.60;99.90;19.30;99803;;;;560643;252;24119;-82
2023/09/23 06:33:23;;;;;;;3.53;2.40;;;19.80;99.90;19.40;99794;;;;560797;252;24122;-79
2023/09/23 06:35:51;;;;;;;4.17;2.67;;;19.90;99.90;19.70;99796;;;;560720;252;23126;-78
2023/09/23 06:38:18;;;;;;;3.47;2.30;;;20.20;99.90;19.90;99787;;;;560556;252;24109;-79
2023/09/23 06:40:46;;;;;;;6.40;3.00;;;20.50;99.90;20.10;99785;;;;561083;252;23118;-81
2023/09/23 06:43:15;;;;;;;9.57;3.90;;;20.90;99.90;20.40;99786;;;;561050;252;24102;-79
2023/09/23 06:45:43;;;;;;;11.70;3.77;;;20.80;99.90;21.10;99785;;;;561163;252;24097;-78
2023/09/23 06:48:11;;;;;;;15.27;3.23;;;21.40;99.90;21.50;99783;;;;560081;252;24126;-79
2023/09/23 06:50:39;;;;;;;15.37;3.83;;;21.90;99.90;21.80;99788;;;;561826;251;24119;-80
2023/09/23 06:53:07;;;;;;;6.93;3.17;;;22.30;99.90;22.80;99789;;;;562076;251;24150;-78
2023/09/23 06:55:39;;;;;;;5.60;2.63;;;23.00;99.90;24.90;99791;;;;561889;251;23162;-79
2023/09/23 06:58:04;;;;;;;5.37;2.40;;;27.10;99.90;27.40;99787;;;;561823;251;24138;-79
2023/09/23 07:00:32;;;;;;;3.80;2.67;;;27.00;99.90;28.80;99786;;;;561706;251;24140;-79
2023/09/23 07:03:03;;;;;;;2.58;2.37;;;28.90;99.90;29.80;99789;;;;561885;251;23118;-78
2023/09/23 07:05:28;;;;;;;2.62;2.35;;;30.00;99.90;30.20;99785;;;;562058;251;23130;-79
2023/09/23 07:07:56;;;;;;;10.30;2.58;;;30.60;99.20;30.40;99785;;;;562186;251;23187;-78
2023/09/23 07:10:24;;;;;;;6.85;2.33;;;30.80;95.80;30.90;99790;;;;561914;251;23138;-78
2023/09/23 07:12:52;;;;;;;2.78;2.42;;;31.30;93.80;31.00;99803;;;;561900;251;24227;-78
2023/09/23 07:15:23;;;;;;;2.25;2.05;;;31.50;91.80;31.20;99812;;;;561800;251;23133;-77
2023/09/23 07:17:48;;;;;;;3.47;2.45;;;31.70;89.90;31.30;99825;;;;561653;251;24116;-78
2023/09/23 07:20:16;;;;;;;2.10;2.00;;;31.70;86.60;31.10;99826;;;;561868;251;23133;-79
2023/09/23 07:22:44;;;;;;;4.62;2.30;;;31.60;86.20;31.20;99840;;;;562036;251;23141;-79
2023/09/23 07:25:11;;;;;;;3.40;2.65;;;31.70;85.10;31.40;99849;;;;561759;251;23188;-80
2023/09/23 07:27:39;;;;;;;3.20;2.12;;;31.80;84.20;32.00;99843;;;;560855;252;23118;-78
2023/09/23 07:30:12;;;;;;;3.08;1.87;;;32.20;82.30;32.80;99853;;;;560650;252;23118;-79
2023/09/23 07:32:35;;;;;;;2.03;1.85;;;33.10;79.90;33.50;99852;;;;560359;252;24165;-80
2023/09/23 07:35:03;;;;;;;2.12;2.00;;;33.90;77.90;34.30;99858;;;;560477;252;23148;-80
2023/09/23 07:37:31;;;;;;;1.90;1.80;;;34.60;74.10;35.50;99861;;;;560688;252;24160;-80
2023/09/23 07:39:59;;;;;;;3.53;2.20;;;35.60;70.30;36.60;99874;;;;560797;252;23137;-80
2023/09/23 07:42:27;;;;;;;1.90;1.80;;;36.80;67.00;37.70;99880;;;;560974;252;23141;-80
2023/09/23 07:44:56;;;;;;;1.95;1.85;;;39.00;58.90;38.90;99883;;;;561058;252;24165;-81
2023/09/23 07:47:28;;;;;;;3.08;1.80;;;38.90;58.80;39.60;99894;;;;561040;252;23137;-80
2023/09/23 07:49:52;;;;;;;2.20;2.10;;;39.90;57.20;40.20;99874;;;;560794;252;24154;-80
2023/09/23 07:52:20;;;;;;;1.62;1.50;;;40.50;54.30;40.40;99873;;;;560771;252;23126;-81
2023/09/23 07:54:48;;;;;;;3.45;1.70;;;40.90;53.30;40.80;99877;;;;560359;252;23118;-82
2023/09/23 07:57:17;;;;;;;2.80;1.80;;;41.30;50.80;40.70;99873;;;;558735;253;23117;-81
2023/09/23 07:59:45;;;;;;;5.55;2.10;;;41.20;50.80;40.70;99874;;;;560843;252;23158;-80
2023/09/23 08:02:13;;;;;;;1.70;1.60;;;41.20;51.00;40.70;99881;;;;561783;251;23114;-82
2023/09/23 08:04:40;;;;;;;2.97;1.85;;;41.30;50.20;39.90;99882;;;;561978;251;23152;-79
2023/09/23 08:07:11;;;;;;;3.08;1.70;;;39.80;49.60;38.20;99883;;;;556848;251;35434;-78
2023/09/23 08:09:38;;;;;;;1.95;1.80;;;38.60;51.20;36.90;99880;;;;565314;251;23147;-80
2023/09/23 08:12:06;;;;;;;1.90;1.80;;;38.50;51.10;36.10;99886;;;;561443;251;23107;-79
2023/09/23 08:14:34;;;;;;;2.05;1.65;;;37.60;52.90;35.80;99889;;;;561820;252;24215;-79
2023/09/23 08:17:02;;;;;;;1.55;1.52;;;37.00;54.60;34.80;99889;;;;559699;253;23202;-79
2023/09/23 08:19:30;;;;;;;2.97;1.70;;;35.20;56.70;33.70;99908;;;;549899;257;23140;-81
2023/09/23 08:21:58;;;;;;;3.37;1.58;;;35.10;56.60;32.80;99912;;;;561949;252;23129;-84
2023/09/23 08:24:26;;;;;;;1.65;1.48;;;34.20;58.10;32.10;99919;;;;561727;252;23114;-83
2023/09/23 08:26:56;;;;;;;1.33;1.27;;;33.40;59.60;31.60;99915;;;;561503;252;23150;-82
2023/09/23 08:29:25;;;;;;;1.40;1.40;;;32.60;60.90;31.00;99919;;;;561216;252;24132;-78
2023/09/23 08:31:50;;;;;;;2.08;1.48;;;32.00;62.30;30.40;99922;;;;560777;252;23133;-82
2023/09/23 08:34:19;;;;;;;1.45;1.40;;;31.30;63.90;29.90;99930;;;;561076;252;24156;-78
2023/09/23 08:36:46;;;;;;;4.05;1.45;;;30.70;65.30;29.40;99939;;;;560895;252;23246;-78
2023/09/23 08:39:14;;;;;;;1.33;1.23;;;30.20;66.40;29.30;99942;;;;561096;252;23136;-79
2023/09/23 08:41:41;;;;;;;1.80;1.70;;;29.90;68.40;29.00;99954;;;;560982;252;23145;-79
2023/09/23 08:44:09;;;;;;;1.77;1.48;;;29.50;68.90;28.60;99968;;;;551711;256;23150;-80
2023/09/23 08:46:41;;;;;;;2.03;1.62;;;29.00;71.10;28.60;99976;;;;561602;252;24121;-83
2023/09/23 08:49:09;;;;;;;2.10;1.90;;;29.10;71.60;28.70;99984;;;;561244;252;24121;-80
2023/09/23 08:51:35;;;;;;;4.35;1.65;;;29.00;71.50;28.40;99951;;;;559869;253;23168;-79
2023/09/23 08:54:02;;;;;;;1.87;1.77;;;29.00;72.00;28.10;99931;;;;560825;252;23129;-81
2023/09/23 08:56:32;;;;;;;6.30;2.17;;;28.80;72.50;28.00;99915;;;;560878;252;23123;-83
2023/09/23 08:59:03;;;;;;;3.03;2.42;;;28.60;73.90;28.00;99932;;;;551081;256;23168;-78
2023/09/23 09:01:28;;;;;;;2.60;1.95;;;28.50;75.00;27.90;99946;;;;560600;252;23169;-79
2023/09/23 09:03:56;;;;;;;2.47;2.12;;;28.50;74.40;27.70;99947;;;;559052;253;23142;-80
2023/09/23 09:06:29;;;;;;;2.45;2.25;;;28.40;75.30;27.60;99942;;;;562965;251;23130;-79
2023/09/23 09:08:53;;;;;;;2.65;2.47;;;28.30;76.30;27.70;99954;;;;574197;246;24134;-78
2023/09/23 09:11:27;;;;;;;2.53;2.33;;;28.30;75.70;27.70;99951;;;;574687;246;23104;-78
2023/09/23 09:13:52;;;;;;;3.22;2.92;;;28.30;76.00;27.70;99944;;;;575326;245;23123;-78
2023/09/23 09:16:20;;;;;;;3.83;2.53;;;28.30;76.00;27.50;99934;;;;575932;245;24118;-78
2023/09/23 09:18:55;;;;;;;2.58;2.47;;;28.20;76.30;27.30;99941;;;;575611;246;24202;-78
2023/09/23 09:21:19;;;;;;;2.87;2.67;;;28.00;76.00;27.20;99938;;;;575026;246;23121;-78
2023/09/23 09:23:50;;;;;;;3.72;2.67;;;27.80;76.60;27.20;99942;;;;574675;246;23104;-79
2023/09/23 09:26:18;;;;;;;2.83;2.67;;;27.80;77.70;27.30;99930;;;;574756;246;23120;-78
2023/09/23 09:28:46;;;;;;;2.78;2.62;;;27.80;77.70;27.40;99931;;;;574821;246;24133;-79
2023/09/23 09:31:15;;;;;;;4.47;2.80;;;27.90;77.20;27.60;99935;;;;574882;243;23153;-82
2023/09/23 09:33:46;;;;;;;5.97;3.08;;;28.80;77.00;28.30;99925;;;;573906;246;23164;-81
2023/09/23 09:36:15;;;;;;;2.85;2.42;;;28.80;76.10;29.30;99930;;;;573440;246;23105;-80
2023/09/23 09:38:39;;;;;;;3.20;2.83;;;29.80;74.50;29.80;99945;;;;550850;256;24168;-80
2023/09/23 09:41:11;;;;;;;2.67;2.37;;;30.60;71.50;30.30;99941;;;;561258;252;23155;-79
2023/09/23 09:43:40;;;;;;;3.62;2.40;;;31.70;69.80;30.80;99936;;;;550930;256;23145;-80
2023/09/23 09:46:08;;;;;;;3.87;2.33;;;31.70;69.30;31.40;99939;;;;574517;246;23103;-79
2023/09/23 09:48:37;;;;;;;4.05;2.35;;;32.40;68.10;31.70;99939;;;;583634;246;23165;-80
2023/09/23 09:51:15;;;;;;;2.35;1.67;;;32.80;66.40;32.00;99944;;;;574280;246;23149;-79
2023/09/23 09:53:37;;;;;;;4.28;2.50;;;33.20;65.40;32.50;99951;;;;574312;246;23203;-80
2023/09/23 09:56:06;;;;;;;5.15;2.25;;;34.10;63.00;32.90;99959;;;;574279;246;24155;-80
2023/09/23 09:58:42;;;;;;;2.30;2.10;;;34.30;61.50;32.90;99962;;;;574223;246;23103;-80
2023/09/23 10:01:08;;;;;;;2.12;1.85;;;34.30;61.50;32.90;99962;;;;573676;246;24146;-80
2023/09/23 10:03:33;;;;;;;1.37;1.37;;;34.40;60.50;32.70;99959;;;;573067;242;23127;-80
2023/09/23 10:06:01;;;;;;;2.05;1.85;;;34.20;60.30;32.40;99963;;;;574384;246;23096;-83
2023/09/23 10:08:35;;;;;;;2.72;1.60;;;33.90;60.00;31.90;99969;;;;574394;246;23104;-80
2023/09/23 10:11:07;;;;;;;7.60;2.53;;;33.40;60.10;31.50;99967;;;;573521;246;23099;-80
2023/09/23 10:13:33;;;;;;;3.45;1.70;;;32.90;60.00;30.90;99978;;;;574078;246;23132;-79
2023/09/23 10:16:17;;;;;;;2.87;1.20;;;32.20;60.60;30.30;99985;;;;573552;246;24123;-78
2023/09/23 10:18:41;;;;;;;1.58;1.48;;;31.60;61.90;29.50;99989;;;;573513;246;23095;-79
2023/09/23 10:21:09;;;;;;;4.32;1.40;;;30.70;64.60;29.00;99987;;;;550459;254;24177;-78
2023/09/23 10:23:41;;;;;;;1.40;1.33;;;29.30;67.30;28.40;99989;;;;560379;252;23215;-77
2023/09/23 10:26:15;;;;;;;1.80;1.50;;;29.30;67.40;28.10;99987;;;;552059;256;23237;-78
2023/09/23 10:28:39;;;;;;;1.20;1.20;;;28.80;69.10;27.90;99993;;;;561725;251;23129;-78
2023/09/23 10:31:10;;;;;;;1.45;1.42;;;28.50;69.80;27.70;99987;;;;550662;256;24221;-78
2023/09/23 10:33:39;;;;;;;4.43;1.70;;;28.20;69.80;27.50;99989;;;;566294;251;23239;-77
2023/09/23 10:36:07;;;;;;;3.50;1.83;;;27.90;70.70;27.30;99995;;;;560199;251;23126;-78
2023/09/23 10:38:34;;;;;;;2.65;1.50;;;27.70;71.20;27.00;99996;;;;560977;251;23164;-76
2023/09/23 10:40:59;;;;;;;1.50;1.50;;;27.40;71.60;26.50;99995;;;;561237;251;23136;-77
2023/09/23 10:43:30;;;;;;;2.70;1.50;;;27.00;73.30;26.30;100005;;;;561365;251;24192;-78
2023/09/23 10:45:58;;;;;;;2.57;1.60;;;26.70;75.10;25.90;100003;;;;560729;252;23134;-76
2023/09/23 10:48:23;;;;;;;2.00;1.90;;;26.30;75.40;25.50;100003;;;;560887;251;23240;-77
2023/09/23 10:50:51;;;;;;;1.90;1.80;;;25.90;76.40;25.30;100000;;;;561265;252;24136;-77
2023/09/23 10:53:25;;;;;;;1.87;1.77;;;25.70;78.20;25.20;100004;;;;561165;251;23175;-77
2023/09/23 10:55:53;;;;;;;2.30;1.50;;;25.60;79.30;25.10;100010;;;;560984;252;23144;-74
2023/09/23 10:58:24;;;;;;;1.50;1.50;;;25.50;80.20;25.00;100006;;;;560974;251;24109;-76
2023/09/23 11:00:52;;;;;;;1.70;1.60;;;25.30;80.20;24.80;100011;;;;560374;252;23182;-77
2023/09/23 11:03:21;;;;;;;1.90;1.80;;;25.10;80.70;24.70;100009;;;;560534;247;24125;-76
2023/09/23 11:05:51;;;;;;;2.07;1.90;;;25.00;82.40;24.60;100010;;;;560821;252;23139;-77
2023/09/23 11:08:18;;;;;;;2.83;1.90;;;25.00;82.40;24.60;100012;;;;550681;256;24185;-77
2023/09/23 11:10:47;;;;;;;2.00;1.90;;;25.00;83.10;24.60;100009;;;;560612;252;23192;-76
2023/09/23 11:13:15;;;;;;;1.50;1.50;;;25.00;84.30;24.60;100010;;;;551032;256;23197;-77
2023/09/23 11:15:43;;;;;;;4.50;2.20;;;25.00;84.30;24.50;100019;;;;560706;252;23178;-77
2023/09/23 11:18:11;;;;;;;2.30;2.20;;;24.90;84.20;24.40;100009;;;;550898;256;24240;-75
2023/09/23 11:20:36;;;;;;;2.40;2.23;;;24.80;84.80;24.30;100007;;;;561042;252;23146;-79